Terminal Aerodrome Forecast
Issued by NWS

Home | Current Version | Previous Version | Text Only | Print | Product List | Glossary On
Versions: 1 2 3 4 5 6 7 8 9 10 11 12 13 14 15 16 17 18 19
000
FTUS43 KGRB 061100
TAFMTW
TAF
KMTW 061126Z 0612/0712 23007KT P6SM FEW100
     FM061500 23014G21KT P6SM SCT070 BKN090
     FM062300 22013G18KT P6SM SCT100
     FM070400 24007KT P6SM SCT070 BKN100
     FM070900 21009KT P6SM SCT050 BKN090=

USA.gov is the U.S. government's official web portal to all federal, state and local government web resources and services.